createdAt,value
2023-07-12T00:01:25.522Z,38.77
2023-07-12T00:03:52.287Z,36.77
2023-07-12T00:06:19.102Z,37.63
2023-07-12T00:08:45.692Z,36.75
2023-07-12T00:11:12.228Z,37.22
2023-07-12T00:13:38.772Z,35.99
2023-07-12T00:16:05.407Z,35.60
2023-07-12T00:18:31.987Z,38.22
2023-07-12T00:20:58.633Z,36.74
2023-07-12T00:23:25.248Z,36.65
2023-07-12T00:25:51.845Z,38.50
2023-07-12T00:28:18.570Z,37.68
2023-07-12T00:30:45.257Z,37.45
2023-07-12T00:33:11.771Z,35.54
2023-07-12T00:35:38.438Z,37.24
2023-07-12T00:38:04.934Z,38.95
2023-07-12T00:40:31.463Z,37.67
2023-07-12T00:42:58.156Z,35.55
2023-07-12T00:45:24.681Z,36.40
2023-07-12T00:47:51.342Z,35.97
2023-07-12T00:50:17.868Z,38.68
2023-07-12T00:52:44.475Z,36.66
2023-07-12T00:55:11.062Z,38.69
2023-07-12T00:57:37.667Z,37.78
2023-07-12T01:00:04.228Z,36.75
2023-07-12T01:02:30.956Z,37.32
2023-07-12T01:04:57.625Z,35.63
2023-07-12T01:07:24.176Z,36.30
2023-07-12T01:09:50.707Z,37.01
2023-07-12T01:12:17.470Z,35.52
2023-07-12T01:14:44.057Z,36.49
2023-07-12T01:17:10.656Z,36.40
2023-07-12T01:19:37.229Z,37.84
2023-07-12T01:22:03.735Z,38.24
2023-07-12T01:24:30.354Z,36.24
2023-07-12T01:26:58.214Z,37.64
2023-07-12T01:29:25.986Z,37.64
2023-07-12T01:31:52.623Z,37.31
2023-07-12T01:34:19.256Z,38.90
2023-07-12T01:36:45.880Z,38.93
2023-07-12T01:39:12.417Z,37.88
2023-07-12T01:41:38.941Z,39.05
2023-07-12T01:44:05.456Z,37.56
2023-07-12T01:46:32.104Z,35.37
2023-07-12T01:48:58.790Z,34.23
2023-07-12T01:51:25.419Z,36.76
2023-07-12T01:53:52.052Z,37.69
2023-07-12T01:56:18.656Z,36.14
2023-07-12T01:58:45.238Z,37.50
2023-07-12T02:01:12.075Z,36.06
2023-07-12T02:03:39.214Z,35.65
2023-07-12T02:06:05.828Z,36.18
2023-07-12T02:08:32.471Z,34.64
2023-07-12T02:10:59.047Z,34.23
2023-07-12T02:13:25.612Z,34.03
2023-07-12T02:15:52.225Z,35.77
2023-07-12T02:18:18.934Z,36.12
2023-07-12T02:20:45.625Z,34.85
2023-07-12T02:23:12.156Z,37.25
2023-07-12T02:25:38.760Z,39.39
2023-07-12T02:28:05.209Z,36.52
2023-07-12T02:30:31.789Z,36.98
2023-07-12T02:32:58.537Z,35.19
2023-07-12T02:35:25.238Z,36.70
2023-07-12T02:37:51.793Z,36.38
2023-07-12T02:40:18.474Z,38.49
2023-07-12T02:42:45.152Z,38.95
2023-07-12T02:45:11.731Z,35.71
2023-07-12T02:47:38.310Z,36.13
2023-07-12T02:50:04.809Z,35.98
2023-07-12T02:52:31.351Z,37.59
2023-07-12T02:54:57.891Z,34.40
2023-07-12T02:57:24.613Z,36.50
2023-07-12T02:59:51.256Z,38.10
2023-07-12T03:02:20.648Z,37.25
2023-07-12T03:04:47.245Z,33.80
2023-07-12T03:07:13.782Z,35.57
2023-07-12T03:09:40.305Z,36.33
2023-07-12T03:12:06.900Z,39.99
2023-07-12T03:14:33.468Z,37.98
2023-07-12T03:17:00.183Z,35.24
2023-07-12T03:19:26.896Z,34.85
2023-07-12T03:21:53.490Z,35.52
2023-07-12T03:24:20.064Z,34.73
2023-07-12T03:26:46.650Z,35.51
2023-07-12T03:29:13.200Z,36.63
2023-07-12T03:31:39.893Z,35.49
2023-07-12T03:34:06.600Z,34.43
2023-07-12T03:36:33.165Z,34.96
2023-07-12T03:38:59.731Z,36.50
2023-07-12T03:41:26.275Z,34.12
2023-07-12T03:43:52.850Z,35.08
2023-07-12T03:46:19.441Z,34.15
2023-07-12T03:48:45.984Z,34.02
2023-07-12T03:51:12.447Z,33.38
2023-07-12T03:53:38.957Z,33.35
2023-07-12T03:56:05.539Z,32.24
2023-07-12T03:58:32.139Z,34.46
2023-07-12T04:00:58.784Z,33.62
2023-07-12T04:03:25.578Z,35.38
2023-07-12T04:05:52.158Z,32.18
2023-07-12T04:08:18.665Z,33.75
2023-07-12T04:10:45.266Z,33.50
2023-07-12T04:13:11.800Z,32.47
2023-07-12T04:15:38.353Z,33.53
2023-07-12T04:18:05.038Z,32.60
2023-07-12T04:20:31.720Z,31.66
2023-07-12T04:22:58.352Z,33.57
2023-07-12T04:25:24.934Z,32.20
2023-07-12T04:27:51.417Z,32.67
2023-07-12T04:30:17.950Z,33.27
2023-07-12T04:32:44.604Z,33.76
2023-07-12T04:35:11.139Z,32.28
2023-07-12T04:37:37.634Z,32.64
2023-07-12T04:40:04.142Z,32.55
2023-07-12T04:42:30.762Z,32.18
2023-07-12T04:44:57.295Z,32.07
2023-07-12T04:47:23.864Z,33.22
2023-07-12T04:49:50.520Z,33.11
2023-07-12T04:52:17.067Z,33.23
2023-07-12T04:54:43.679Z,32.89
2023-07-12T04:57:10.233Z,32.53
2023-07-12T04:59:36.806Z,32.50
2023-07-12T05:02:03.332Z,30.98
2023-07-12T05:04:29.898Z,34.39
2023-07-12T05:06:56.471Z,31.46
2023-07-12T05:09:23.096Z,33.38
2023-07-12T05:11:49.718Z,31.34
2023-07-12T05:14:16.316Z,31.07
2023-07-12T05:16:42.852Z,32.54
2023-07-12T05:19:09.464Z,32.06
2023-07-12T05:21:36.099Z,32.41
2023-07-12T05:24:02.703Z,33.26
2023-07-12T05:26:29.467Z,32.03
2023-07-12T05:28:56.033Z,32.82
2023-07-12T05:31:23.817Z,31.30
2023-07-12T05:33:50.428Z,32.61
2023-07-12T05:36:16.985Z,33.26
2023-07-12T05:38:43.574Z,32.33
2023-07-12T05:41:10.457Z,30.88
2023-07-12T05:43:37.396Z,30.42
2023-07-12T05:46:03.891Z,35.27
2023-07-12T05:48:30.570Z,31.63
2023-07-12T05:50:57.134Z,32.52
2023-07-12T05:53:23.653Z,32.35
2023-07-12T05:55:50.329Z,32.37
2023-07-12T05:58:16.941Z,35.79
2023-07-12T06:00:43.546Z,34.29
2023-07-12T06:03:10.159Z,34.31
2023-07-12T06:05:36.841Z,32.90
2023-07-12T06:08:03.440Z,34.19
2023-07-12T06:10:30.150Z,35.57
2023-07-12T06:12:56.742Z,33.23
2023-07-12T06:15:23.270Z,32.55
2023-07-12T06:17:49.914Z,32.22
2023-07-12T06:20:16.626Z,32.48
2023-07-12T06:22:43.270Z,33.73
2023-07-12T06:25:09.809Z,34.13
2023-07-12T06:27:36.434Z,34.07
2023-07-12T06:30:03.062Z,34.01
2023-07-12T06:32:29.682Z,33.22
2023-07-12T06:34:56.190Z,32.50
2023-07-12T06:37:22.786Z,33.22
2023-07-12T06:39:49.357Z,33.23
2023-07-12T06:42:18.710Z,32.71
2023-07-12T06:44:46.500Z,33.14
2023-07-12T06:47:13.010Z,32.93
2023-07-12T06:49:39.569Z,31.18
2023-07-12T06:52:06.216Z,32.00
2023-07-12T06:54:33.626Z,33.21
2023-07-12T06:57:00.350Z,32.64
2023-07-12T06:59:26.878Z,33.71
2023-07-12T07:01:53.462Z,30.99
2023-07-12T07:04:20.182Z,33.53
2023-07-12T07:06:46.851Z,33.74
2023-07-12T07:09:13.510Z,33.16
2023-07-12T07:11:40.126Z,32.66
2023-07-12T07:14:06.775Z,31.34
2023-07-12T07:16:33.439Z,34.03
2023-07-12T07:19:00.074Z,30.68
2023-07-12T07:21:26.804Z,31.08
2023-07-12T07:23:53.401Z,30.65
2023-07-12T07:26:20.035Z,31.15
2023-07-12T07:28:46.539Z,33.96
2023-07-12T07:31:13.169Z,33.70
2023-07-12T07:33:39.819Z,33.66
2023-07-12T07:36:06.678Z,34.11
2023-07-12T07:38:33.393Z,32.70
2023-07-12T07:40:59.933Z,30.79
2023-07-12T07:43:26.530Z,31.45
2023-07-12T07:45:53.168Z,33.02
2023-07-12T07:48:19.843Z,31.36
2023-07-12T07:50:46.352Z,31.33
2023-07-12T07:53:12.969Z,32.62
2023-07-12T07:55:39.605Z,30.51
2023-07-12T07:58:06.188Z,32.44
2023-07-12T08:00:32.721Z,30.93
2023-07-12T08:02:59.423Z,32.41
2023-07-12T08:05:26.134Z,29.66
2023-07-12T08:07:52.766Z,31.32
2023-07-12T08:10:19.366Z,32.08
2023-07-12T08:12:45.941Z,31.23
2023-07-12T08:15:12.505Z,28.55
2023-07-12T08:17:39.093Z,28.42
2023-07-12T08:20:05.683Z,29.90
2023-07-12T08:22:32.283Z,30.35
2023-07-12T08:24:58.931Z,29.42
2023-07-12T08:27:25.532Z,31.14
2023-07-12T08:29:52.144Z,29.31
2023-07-12T08:32:18.692Z,32.00
2023-07-12T08:34:45.230Z,30.49
2023-07-12T08:37:14.515Z,30.04
2023-07-12T08:39:41.239Z,28.88
2023-07-12T08:42:07.830Z,28.30
2023-07-12T08:44:34.379Z,29.59
2023-07-12T08:47:00.942Z,30.91
2023-07-12T08:49:27.576Z,31.90
2023-07-12T08:51:54.117Z,29.35
2023-07-12T08:54:20.665Z,31.19
2023-07-12T08:56:47.190Z,35.06
2023-07-12T08:59:13.821Z,34.27
2023-07-12T09:01:40.524Z,35.00
2023-07-12T09:04:07.084Z,33.96
2023-07-12T09:06:33.632Z,34.89
2023-07-12T09:09:00.206Z,34.71
2023-07-12T09:11:26.734Z,34.54
2023-07-12T09:13:53.299Z,32.82
2023-07-12T09:16:19.880Z,34.12
2023-07-12T09:18:46.518Z,34.56
2023-07-12T09:21:13.226Z,35.03
2023-07-12T09:23:39.824Z,32.60
2023-07-12T09:26:06.383Z,34.06
2023-07-12T09:28:32.970Z,32.68
2023-07-12T09:30:59.536Z,34.66
2023-07-12T09:33:26.098Z,36.05
2023-07-12T09:35:52.649Z,34.67
2023-07-12T09:38:19.253Z,34.39
2023-07-12T09:40:45.836Z,36.50
2023-07-12T09:43:12.472Z,35.99
2023-07-12T09:45:41.651Z,35.36
2023-07-12T09:48:12.434Z,37.34
2023-07-12T09:50:38.982Z,36.89
2023-07-12T09:53:05.527Z,38.35
2023-07-12T09:55:32.059Z,35.81
2023-07-12T09:57:58.640Z,36.67
2023-07-12T10:00:25.435Z,35.39
2023-07-12T10:02:52.114Z,38.09
2023-07-12T10:05:18.858Z,37.07
2023-07-12T10:07:45.488Z,34.83
2023-07-12T10:10:11.992Z,36.29
2023-07-12T10:12:38.527Z,36.49
2023-07-12T10:15:05.081Z,37.14
2023-07-12T10:17:31.777Z,35.55
2023-07-12T10:19:58.789Z,37.21
2023-07-12T10:22:25.291Z,37.38
2023-07-12T10:24:51.872Z,38.94
2023-07-12T10:27:18.444Z,36.74
2023-07-12T10:29:45.036Z,40.81
2023-07-12T10:32:11.758Z,40.79
2023-07-12T10:34:38.432Z,41.56
2023-07-12T10:37:04.979Z,41.59
2023-07-12T10:39:31.586Z,43.55
2023-07-12T10:41:58.201Z,42.52
2023-07-12T10:44:24.798Z,42.63
2023-07-12T10:46:51.436Z,45.08
2023-07-12T10:49:18.099Z,45.86
2023-07-12T10:51:46.014Z,46.46
2023-07-12T10:54:12.791Z,45.03
2023-07-12T10:56:39.352Z,45.51
2023-07-12T10:59:05.936Z,45.96
2023-07-12T11:01:32.560Z,47.76
2023-07-12T11:03:59.161Z,50.51
2023-07-12T11:06:25.665Z,45.31
2023-07-12T11:08:52.271Z,47.64
2023-07-12T11:11:18.801Z,44.43
2023-07-12T11:13:45.416Z,43.94
2023-07-12T11:16:12.000Z,45.06
2023-07-12T11:18:38.745Z,45.41
2023-07-12T11:21:05.422Z,47.75
2023-07-12T11:23:31.981Z,47.65
2023-07-12T11:25:58.575Z,47.07
2023-07-12T11:28:25.241Z,51.54
2023-07-12T11:30:51.908Z,48.93
2023-07-12T11:33:18.574Z,49.67
2023-07-12T11:35:45.168Z,46.96
2023-07-12T11:38:11.848Z,45.50
2023-07-12T11:40:38.469Z,45.29
2023-07-12T11:43:05.024Z,44.61
2023-07-12T11:45:31.633Z,42.77
2023-07-12T11:47:58.205Z,44.15
2023-07-12T11:50:24.822Z,43.75
2023-07-12T11:52:51.504Z,44.27
2023-07-12T11:55:18.167Z,45.45
2023-07-12T11:57:44.846Z,47.16
2023-07-12T12:00:11.455Z,44.97
2023-07-12T12:02:38.078Z,45.63
2023-07-12T12:05:04.664Z,46.36
2023-07-12T12:07:31.275Z,47.57
2023-07-12T12:09:58.417Z,46.47
2023-07-12T12:12:25.014Z,44.27
2023-07-12T12:14:51.618Z,46.48
2023-07-12T12:17:18.268Z,44.82
2023-07-12T12:19:45.165Z,43.89
2023-07-12T12:22:13.182Z,45.26
2023-07-12T12:24:39.978Z,43.64
2023-07-12T12:27:18.897Z,43.33
2023-07-12T12:29:47.110Z,45.96
2023-07-12T12:32:13.715Z,43.76
2023-07-12T12:34:40.382Z,44.32
2023-07-12T12:37:06.985Z,43.68
2023-07-12T12:39:33.523Z,43.30
2023-07-12T12:42:00.073Z,44.27
2023-07-12T12:44:26.724Z,45.94
2023-07-12T12:54:21.609Z,44.59
2023-07-12T13:07:03.702Z,46.25
2023-07-12T13:19:30.333Z,47.72
2023-07-12T13:21:57.456Z,45.49
2023-07-12T13:24:24.330Z,45.70
2023-07-12T13:26:50.993Z,47.59
2023-07-12T13:29:17.580Z,47.19
2023-07-12T13:31:44.197Z,45.74
2023-07-12T13:34:13.898Z,46.76
2023-07-12T13:36:42.103Z,45.34
2023-07-12T13:46:36.894Z,48.73
2023-07-12T13:49:03.498Z,49.30
2023-07-12T13:51:30.031Z,50.39
2023-07-12T13:53:56.566Z,49.35
2023-07-12T14:01:26.921Z,52.77
2023-07-12T14:03:55.092Z,51.25
2023-07-12T14:06:44.902Z,52.15
2023-07-12T14:09:08.232Z,50.94
2023-07-12T14:11:34.841Z,48.93
2023-07-12T14:14:01.383Z,49.18
2023-07-12T14:16:28.017Z,52.57
2023-07-12T14:18:54.633Z,54.31
2023-07-12T14:21:21.200Z,55.15
2023-07-12T14:23:47.791Z,53.99
2023-07-12T14:26:14.537Z,51.30
2023-07-12T14:28:41.332Z,51.17
2023-07-12T14:31:08.384Z,54.66
2023-07-12T14:33:34.949Z,54.04
2023-07-12T14:36:01.505Z,55.21
2023-07-12T14:38:28.235Z,55.93
2023-07-12T14:40:54.781Z,54.82
2023-07-12T14:43:21.330Z,52.83
2023-07-12T14:45:47.929Z,48.86
2023-07-12T14:48:14.468Z,51.56
2023-07-12T14:50:41.301Z,48.07
2023-07-12T14:53:07.863Z,48.51
2023-07-12T14:55:34.604Z,50.30
2023-07-12T15:00:30.656Z,50.58
2023-07-12T15:02:57.343Z,53.84
2023-07-12T15:05:24.021Z,50.40
2023-07-12T15:07:50.533Z,50.62
2023-07-12T15:10:17.150Z,51.61
2023-07-12T15:12:43.751Z,51.48
2023-07-12T15:15:10.471Z,52.51
2023-07-12T15:17:36.995Z,50.97
2023-07-12T15:20:03.582Z,53.12
2023-07-12T15:22:30.229Z,53.18
2023-07-12T15:24:56.824Z,53.46
2023-07-12T15:27:23.484Z,52.09
2023-07-12T15:29:50.083Z,53.57
2023-07-12T15:32:16.613Z,51.73
2023-07-12T15:34:43.134Z,57.03
2023-07-12T15:37:09.670Z,56.96
2023-07-12T15:39:36.402Z,60.85
2023-07-12T15:42:02.949Z,60.86
2023-07-12T15:44:29.455Z,59.68
2023-07-12T15:46:56.076Z,62.06
2023-07-12T15:49:22.587Z,62.27
2023-07-12T15:51:49.143Z,61.51
2023-07-12T15:54:15.711Z,70.29
2023-07-12T15:56:42.265Z,75.41
2023-07-12T15:59:08.760Z,68.59
2023-07-12T16:01:35.376Z,64.45
2023-07-12T16:04:01.892Z,65.24
2023-07-12T16:06:28.447Z,63.95
2023-07-12T16:08:55.089Z,63.66
2023-07-12T16:11:21.597Z,75.26
2023-07-12T16:16:18.246Z,74.72
2023-07-12T16:18:49.741Z,68.76
2023-07-12T16:21:16.383Z,64.97
2023-07-12T16:23:42.942Z,65.27
2023-07-12T16:26:09.708Z,64.64
2023-07-12T16:28:36.375Z,64.70
2023-07-12T16:31:03.016Z,61.61
2023-07-12T16:33:29.642Z,63.11
2023-07-12T16:35:56.142Z,70.18
2023-07-12T16:38:22.651Z,81.93
2023-07-12T16:40:49.226Z,77.32
2023-07-12T16:43:15.718Z,70.37
2023-07-12T16:45:42.240Z,66.44
2023-07-12T16:48:08.748Z,64.30
2023-07-12T16:50:35.291Z,62.53
2023-07-12T16:53:02.145Z,61.36
2023-07-12T16:55:28.687Z,60.59
2023-07-12T16:57:55.194Z,55.37
2023-07-12T17:00:21.705Z,58.95
2023-07-12T17:02:48.382Z,56.66
2023-07-12T17:05:14.923Z,55.53
2023-07-12T17:07:41.429Z,52.13
2023-07-12T17:10:08.313Z,54.01
2023-07-12T17:12:34.978Z,54.21
2023-07-12T17:15:01.491Z,52.85
2023-07-12T17:17:28.199Z,53.82
2023-07-12T17:19:54.885Z,56.09
2023-07-12T17:22:21.696Z,53.99
2023-07-12T17:24:48.361Z,52.29
2023-07-12T17:27:17.845Z,50.06
2023-07-12T17:29:44.427Z,51.49
2023-07-12T17:32:11.099Z,49.59
2023-07-12T17:34:37.634Z,50.98
2023-07-12T17:37:04.156Z,47.51
2023-07-12T17:39:30.655Z,46.79
2023-07-12T17:41:57.140Z,45.46
2023-07-12T17:44:23.645Z,45.67
2023-07-12T17:46:50.172Z,43.13
2023-07-12T17:49:16.687Z,45.73
2023-07-12T17:51:43.615Z,44.83
2023-07-12T17:54:10.127Z,42.94
2023-07-12T17:56:36.744Z,39.83
2023-07-12T17:59:03.262Z,41.53
2023-07-12T18:01:29.808Z,42.54
2023-07-12T18:03:56.346Z,40.64
2023-07-12T18:06:22.989Z,39.79
2023-07-12T18:08:49.521Z,41.13
2023-07-12T18:11:16.072Z,39.57
2023-07-12T18:13:42.656Z,39.54
2023-07-12T18:16:09.429Z,39.33
2023-07-12T18:18:36.216Z,38.89
2023-07-12T18:21:02.754Z,39.54
2023-07-12T18:23:29.263Z,38.93
2023-07-12T18:25:55.856Z,36.33
2023-07-12T18:28:22.373Z,38.08
2023-07-12T18:30:48.936Z,38.60
2023-07-12T18:33:15.496Z,38.22
2023-07-12T18:35:42.022Z,39.99
2023-07-12T18:38:08.520Z,39.71
2023-07-12T18:40:35.129Z,35.80
2023-07-12T18:43:01.676Z,35.61
2023-07-12T18:45:28.283Z,35.29
2023-07-12T18:47:54.927Z,34.86
2023-07-12T18:50:21.486Z,31.53
2023-07-12T18:52:48.038Z,32.43
2023-07-12T18:55:14.637Z,31.16
2023-07-12T18:57:41.238Z,34.86
2023-07-12T19:00:07.796Z,34.94
2023-07-12T19:02:34.363Z,48.08
2023-07-12T19:05:00.939Z,56.03
2023-07-12T19:07:27.437Z,41.76
2023-07-12T19:09:53.918Z,37.18
2023-07-12T19:12:20.451Z,32.06
2023-07-12T19:14:46.984Z,31.64
2023-07-12T19:17:13.653Z,30.13
2023-07-12T19:19:40.270Z,26.80
2023-07-12T19:22:06.991Z,25.42
2023-07-12T19:24:33.531Z,24.05
2023-07-12T19:27:04.519Z,23.27
2023-07-12T19:29:33.824Z,23.35
2023-07-12T19:32:00.394Z,24.01
2023-07-12T19:34:26.966Z,23.43
2023-07-12T19:36:53.537Z,22.62
2023-07-12T19:39:20.096Z,22.53
2023-07-12T19:41:46.716Z,22.72
2023-07-12T19:44:13.279Z,23.53
2023-07-12T19:46:39.798Z,23.30
2023-07-12T19:49:06.419Z,25.09
2023-07-12T19:51:32.948Z,24.21
2023-07-12T19:53:59.534Z,25.13
2023-07-12T19:56:26.081Z,23.84
2023-07-12T19:58:52.736Z,22.10
2023-07-12T20:01:19.288Z,24.25
2023-07-12T20:03:45.874Z,24.62
2023-07-12T20:06:12.825Z,24.71
2023-07-12T20:08:39.981Z,22.34
2023-07-12T20:11:06.480Z,24.10
2023-07-12T20:13:33.012Z,24.83
2023-07-12T20:15:59.513Z,24.38
2023-07-12T20:18:25.975Z,23.30
2023-07-12T20:20:52.524Z,23.14
2023-07-12T20:23:18.986Z,23.74
2023-07-12T20:25:45.459Z,22.74
2023-07-12T20:28:11.952Z,21.84
2023-07-12T20:30:38.522Z,20.64
2023-07-12T20:33:05.118Z,20.97
2023-07-12T20:35:31.640Z,20.93
2023-07-12T20:37:58.145Z,22.20
2023-07-12T20:40:24.593Z,21.47
2023-07-12T20:42:51.274Z,22.09
2023-07-12T20:45:17.728Z,23.53
2023-07-12T20:47:44.289Z,21.59
2023-07-12T20:50:10.808Z,22.01
2023-07-12T20:52:37.485Z,22.29
2023-07-12T20:55:04.069Z,22.38
2023-07-12T20:57:30.534Z,20.83
2023-07-12T20:59:57.015Z,20.67
2023-07-12T21:02:23.454Z,22.46
2023-07-12T21:04:49.957Z,21.92
2023-07-12T21:07:16.454Z,20.64
2023-07-12T21:09:43.707Z,20.94
2023-07-12T21:12:10.286Z,21.31
2023-07-12T21:14:36.821Z,21.41
2023-07-12T21:17:03.333Z,22.32
2023-07-12T21:19:29.896Z,20.77
2023-07-12T21:21:56.383Z,20.44
2023-07-12T21:24:22.837Z,19.46
2023-07-12T21:26:49.358Z,19.94
2023-07-12T21:29:15.853Z,19.37
2023-07-12T21:31:42.349Z,20.26
2023-07-12T21:34:09.017Z,20.40
2023-07-12T21:36:35.610Z,21.71
2023-07-12T21:39:02.058Z,21.83
2023-07-12T21:41:28.531Z,22.45
2023-07-12T21:43:55.047Z,22.49
2023-07-12T21:46:21.610Z,23.11
2023-07-12T21:48:48.091Z,22.76
2023-07-12T21:51:14.582Z,21.53
2023-07-12T21:53:41.023Z,24.48
2023-07-12T21:56:07.542Z,22.55
2023-07-12T21:58:34.077Z,23.91
2023-07-12T22:01:00.653Z,23.45
2023-07-12T22:03:27.272Z,25.66
2023-07-12T22:05:53.805Z,22.07
2023-07-12T22:08:20.473Z,22.90
2023-07-12T22:10:47.013Z,22.15
2023-07-12T22:13:13.484Z,22.37
2023-07-12T22:15:40.225Z,22.11
2023-07-12T22:18:06.893Z,21.94
2023-07-12T22:20:33.536Z,21.48
2023-07-12T22:23:00.181Z,23.15
2023-07-12T22:25:26.836Z,22.65
2023-07-12T22:27:53.354Z,21.93
2023-07-12T22:30:19.852Z,21.32
2023-07-12T22:32:46.410Z,20.11
2023-07-12T22:35:12.906Z,21.82
2023-07-12T22:37:39.389Z,21.16
2023-07-12T22:40:05.896Z,21.47
2023-07-12T22:42:32.414Z,21.60
2023-07-12T22:44:58.977Z,21.76
2023-07-12T22:47:25.654Z,21.66
2023-07-12T22:49:52.166Z,19.72
2023-07-12T22:52:18.701Z,19.22
2023-07-12T22:54:45.275Z,18.83
2023-07-12T22:57:14.725Z,19.90
2023-07-12T22:59:41.493Z,20.41
2023-07-12T23:02:08.091Z,20.46
2023-07-12T23:04:34.694Z,23.09
2023-07-12T23:07:01.219Z,21.48
2023-07-12T23:09:27.771Z,20.04
2023-07-12T23:11:54.328Z,20.26
2023-07-12T23:14:20.889Z,18.77
2023-07-12T23:16:47.421Z,17.97
2023-07-12T23:19:13.963Z,17.64
2023-07-12T23:21:40.469Z,18.53
2023-07-12T23:24:07.041Z,18.66
2023-07-12T23:26:33.564Z,19.21
2023-07-12T23:29:00.059Z,16.97
2023-07-12T23:31:26.662Z,17.72
2023-07-12T23:33:53.253Z,18.80
2023-07-12T23:36:19.895Z,17.65
2023-07-12T23:38:46.448Z,18.38
2023-07-12T23:41:12.946Z,16.56
2023-07-12T23:43:39.446Z,17.16
2023-07-12T23:46:06.206Z,18.90
2023-07-12T23:48:32.789Z,16.79
2023-07-12T23:50:59.420Z,18.03
2023-07-12T23:53:25.958Z,17.98
2023-07-12T23:55:52.514Z,18.26
2023-07-12T23:58:19.021Z,16.77
